sensor_id;sensor_type;location;lat;lon;timestamp;pressure;altitude;pressure_sealevel;temperature;humidity
39357;BME280;25077;50.302;18.996;2022-10-22T00:03:05;97973.38;;;9.14;59.75
39357;BME280;25077;50.302;18.996;2022-10-22T00:06:08;97968.66;;;9.11;58.42
39357;BME280;25077;50.302;18.996;2022-10-22T00:09:10;97966.31;;;9.10;59.79
39357;BME280;25077;50.302;18.996;2022-10-22T00:16:40;97968.59;;;9.08;59.73
39357;BME280;25077;50.302;18.996;2022-10-22T00:19:43;97966.59;;;9.05;59.08
39357;BME280;25077;50.302;18.996;2022-10-22T00:22:45;97971.63;;;9.06;58.20
39357;BME280;25077;50.302;18.996;2022-10-22T00:25:47;97967.09;;;9.10;59.14
39357;BME280;25077;50.302;18.996;2022-10-22T00:30:40;97988.22;;;9.05;58.64
39357;BME280;25077;50.302;18.996;2022-10-22T00:33:45;97981.81;;;9.13;58.38
39357;BME280;25077;50.302;18.996;2022-10-22T00:36:56;97985.66;;;9.12;58.60
39357;BME280;25077;50.302;18.996;2022-10-22T00:39:58;97971.00;;;9.13;59.21
39357;BME280;25077;50.302;18.996;2022-10-22T00:43:00;97969.09;;;9.13;59.13
39357;BME280;25077;50.302;18.996;2022-10-22T00:46:02;97972.88;;;9.09;59.00
39357;BME280;25077;50.302;18.996;2022-10-22T00:49:04;97972.09;;;9.08;59.20
39357;BME280;25077;50.302;18.996;2022-10-22T00:52:08;97961.97;;;9.05;59.47
39357;BME280;25077;50.302;18.996;2022-10-22T00:55:11;97954.66;;;9.06;58.50
39357;BME280;25077;50.302;18.996;2022-10-22T01:02:41;97961.56;;;9.03;58.66
39357;BME280;25077;50.302;18.996;2022-10-22T01:05:55;97965.31;;;8.99;59.95
39357;BME280;25077;50.302;18.996;2022-10-22T01:09:08;97967.16;;;8.95;59.57
39357;BME280;25077;50.302;18.996;2022-10-22T01:12:25;97966.25;;;8.87;60.04
39357;BME280;25077;50.302;18.996;2022-10-22T01:15:36;97972.84;;;8.89;59.87
39357;BME280;25077;50.302;18.996;2022-10-22T01:18:47;97972.34;;;8.84;59.52
39357;BME280;25077;50.302;18.996;2022-10-22T01:21:58;97969.72;;;8.87;59.31
39357;BME280;25077;50.302;18.996;2022-10-22T01:25:08;97963.44;;;8.83;59.65
39357;BME280;25077;50.302;18.996;2022-10-22T01:32:45;97949.81;;;8.76;60.22
39357;BME280;25077;50.302;18.996;2022-10-22T01:35:49;97952.88;;;8.75;60.42
39357;BME280;25077;50.302;18.996;2022-10-22T01:38:52;97944.00;;;8.74;60.71
39357;BME280;25077;50.302;18.996;2022-10-22T01:41:55;97940.16;;;8.75;59.86
39357;BME280;25077;50.302;18.996;2022-10-22T01:44:58;97958.31;;;8.78;59.60
39357;BME280;25077;50.302;18.996;2022-10-22T01:48:11;97952.50;;;8.76;60.44
39357;BME280;25077;50.302;18.996;2022-10-22T01:51:26;97944.41;;;8.76;59.77
39357;BME280;25077;50.302;18.996;2022-10-22T01:54:37;97935.53;;;8.76;60.73
39357;BME280;25077;50.302;18.996;2022-10-22T02:02:12;97943.25;;;8.77;60.67
39357;BME280;25077;50.302;18.996;2022-10-22T02:05:21;97937.81;;;8.74;60.82
39357;BME280;25077;50.302;18.996;2022-10-22T02:08:28;97934.03;;;8.78;60.37
39357;BME280;25077;50.302;18.996;2022-10-22T02:11:31;97928.63;;;8.78;59.92
39357;BME280;25077;50.302;18.996;2022-10-22T02:19:06;97936.72;;;8.78;59.69
39357;BME280;25077;50.302;18.996;2022-10-22T02:22:12;97940.84;;;8.72;60.40
39357;BME280;25077;50.302;18.996;2022-10-22T02:25:15;97927.78;;;8.74;60.44
39357;BME280;25077;50.302;18.996;2022-10-22T02:28:22;97939.56;;;8.66;60.73
39357;BME280;25077;50.302;18.996;2022-10-22T02:31:29;97930.75;;;8.69;59.92
39357;BME280;25077;50.302;18.996;2022-10-22T02:34:32;97922.22;;;8.67;60.77
39357;BME280;25077;50.302;18.996;2022-10-22T02:37:35;97922.94;;;8.64;59.79
39357;BME280;25077;50.302;18.996;2022-10-22T02:40:38;97924.41;;;8.61;60.38
39357;BME280;25077;50.302;18.996;2022-10-22T02:48:08;97931.22;;;8.55;61.56
39357;BME280;25077;50.302;18.996;2022-10-22T02:51:10;97942.81;;;8.56;59.86
39357;BME280;25077;50.302;18.996;2022-10-22T02:54:14;97943.84;;;8.51;60.73
39357;BME280;25077;50.302;18.996;2022-10-22T03:02:52;97960.91;;;8.39;61.28
39357;BME280;25077;50.302;18.996;2022-10-22T03:05:55;97964.75;;;8.38;61.08
39357;BME280;25077;50.302;18.996;2022-10-22T03:08:57;97959.97;;;8.32;61.95
39357;BME280;25077;50.302;18.996;2022-10-22T03:12:01;97973.88;;;8.34;62.90
39357;BME280;25077;50.302;18.996;2022-10-22T03:16:39;97960.34;;;8.30;62.51
39357;BME280;25077;50.302;18.996;2022-10-22T03:19:41;97970.00;;;8.31;62.26
39357;BME280;25077;50.302;18.996;2022-10-22T03:22:43;97956.13;;;8.33;61.03
39357;BME280;25077;50.302;18.996;2022-10-22T03:25:47;97957.44;;;8.39;61.96
39357;BME280;25077;50.302;18.996;2022-10-22T03:28:52;97945.53;;;8.40;62.19
39357;BME280;25077;50.302;18.996;2022-10-22T03:31:55;97935.94;;;8.43;61.57
39357;BME280;25077;50.302;18.996;2022-10-22T03:34:57;97931.69;;;8.42;61.18
39357;BME280;25077;50.302;18.996;2022-10-22T03:37:59;97906.53;;;8.37;61.87
39357;BME280;25077;50.302;18.996;2022-10-22T03:41:02;97909.38;;;8.45;61.32
39357;BME280;25077;50.302;18.996;2022-10-22T03:48:33;97918.19;;;8.42;62.22
39357;BME280;25077;50.302;18.996;2022-10-22T03:51:35;97933.22;;;8.43;62.10
39357;BME280;25077;50.302;18.996;2022-10-22T03:54:37;97929.75;;;8.42;60.81
39357;BME280;25077;50.302;18.996;2022-10-22T04:03:18;97940.91;;;8.41;62.88
39357;BME280;25077;50.302;18.996;2022-10-22T04:06:23;97942.47;;;8.42;62.07
39357;BME280;25077;50.302;18.996;2022-10-22T04:09:25;97958.72;;;8.45;61.04
39357;BME280;25077;50.302;18.996;2022-10-22T04:16:55;97963.34;;;8.45;62.13
39357;BME280;25077;50.302;18.996;2022-10-22T04:19:57;97963.53;;;8.52;61.57
39357;BME280;25077;50.302;18.996;2022-10-22T04:23:00;97951.59;;;8.53;61.29
39357;BME280;25077;50.302;18.996;2022-10-22T04:26:04;97949.06;;;8.60;60.71
39357;BME280;25077;50.302;18.996;2022-10-22T04:33:34;97920.09;;;8.57;61.44
39357;BME280;25077;50.302;18.996;2022-10-22T04:36:36;97918.22;;;8.61;61.31
39357;BME280;25077;50.302;18.996;2022-10-22T04:39:39;97913.28;;;8.63;60.75
39357;BME280;25077;50.302;18.996;2022-10-22T04:42:41;97917.41;;;8.57;61.51
39357;BME280;25077;50.302;18.996;2022-10-22T04:45:43;97897.78;;;8.60;61.24
39357;BME280;25077;50.302;18.996;2022-10-22T04:48:45;97900.56;;;8.63;60.73
39357;BME280;25077;50.302;18.996;2022-10-22T04:51:47;97896.31;;;8.62;60.88
39357;BME280;25077;50.302;18.996;2022-10-22T04:54:51;97890.47;;;8.60;60.92
39357;BME280;25077;50.302;18.996;2022-10-22T05:02:21;97880.44;;;8.61;60.56
39357;BME280;25077;50.302;18.996;2022-10-22T05:05:23;97883.88;;;8.58;61.41
39357;BME280;25077;50.302;18.996;2022-10-22T05:08:25;97881.16;;;8.58;60.71
39357;BME280;25077;50.302;18.996;2022-10-22T05:11:30;97887.25;;;8.55;60.59
39357;BME280;25077;50.302;18.996;2022-10-22T05:19:00;97932.09;;;8.44;62.03
39357;BME280;25077;50.302;18.996;2022-10-22T05:22:04;97927.16;;;8.46;62.06
39357;BME280;25077;50.302;18.996;2022-10-22T05:25:07;97933.22;;;8.43;62.06
39357;BME280;25077;50.302;18.996;2022-10-22T05:28:10;97934.78;;;8.44;62.11
39357;BME280;25077;50.302;18.996;2022-10-22T05:31:13;97937.75;;;8.38;62.98
39357;BME280;25077;50.302;18.996;2022-10-22T05:34:15;97930.53;;;8.43;62.33
39357;BME280;25077;50.302;18.996;2022-10-22T05:37:17;97942.53;;;8.45;61.55
39357;BME280;25077;50.302;18.996;2022-10-22T05:40:19;97945.59;;;8.44;62.12
39357;BME280;25077;50.302;18.996;2022-10-22T05:47:50;97911.56;;;8.55;61.77
39357;BME280;25077;50.302;18.996;2022-10-22T05:50:52;97909.31;;;8.57;61.90
39357;BME280;25077;50.302;18.996;2022-10-22T05:53:56;97936.72;;;8.59;62.13
39357;BME280;25077;50.302;18.996;2022-10-22T05:56:58;97937.84;;;8.58;61.79
39357;BME280;25077;50.302;18.996;2022-10-22T06:04:02;97916.81;;;8.67;61.91
39357;BME280;25077;50.302;18.996;2022-10-22T06:07:04;97919.25;;;8.72;60.92
39357;BME280;25077;50.302;18.996;2022-10-22T06:10:08;97937.88;;;8.77;61.01
39357;BME280;25077;50.302;18.996;2022-10-22T06:13:14;97953.38;;;8.80;62.19
39357;BME280;25077;50.302;18.996;2022-10-22T06:20:45;97971.91;;;8.82;61.34
39357;BME280;25077;50.302;18.996;2022-10-22T06:23:48;97988.91;;;8.82;61.89
39357;BME280;25077;50.302;18.996;2022-10-22T06:26:50;97977.81;;;8.87;61.47
39357;BME280;25077;50.302;18.996;2022-10-22T06:29:52;97977.59;;;8.96;61.47
39357;BME280;25077;50.302;18.996;2022-10-22T06:32:55;97980.03;;;9.01;61.21
39357;BME280;25077;50.302;18.996;2022-10-22T06:36:04;97975.41;;;9.02;61.47
39357;BME280;25077;50.302;18.996;2022-10-22T06:39:10;97975.41;;;9.02;61.77
39357;BME280;25077;50.302;18.996;2022-10-22T06:42:12;97972.38;;;9.03;61.50
39357;BME280;25077;50.302;18.996;2022-10-22T06:49:42;97997.97;;;9.09;60.31
39357;BME280;25077;50.302;18.996;2022-10-22T06:52:45;97990.78;;;9.17;60.46
39357;BME280;25077;50.302;18.996;2022-10-22T06:55:47;98003.59;;;9.20;61.09
39357;BME280;25077;50.302;18.996;2022-10-22T06:58:51;98004.59;;;9.31;60.94
39357;BME280;25077;50.302;18.996;2022-10-22T07:01:53;97994.31;;;9.40;59.93
39357;BME280;25077;50.302;18.996;2022-10-22T07:04:55;97980.97;;;9.48;60.64
39357;BME280;25077;50.302;18.996;2022-10-22T07:07:59;98003.09;;;9.53;61.13
39357;BME280;25077;50.302;18.996;2022-10-22T07:11:05;98000.91;;;9.62;59.96
39357;BME280;25077;50.302;18.996;2022-10-22T07:18:35;97988.16;;;9.82;60.02
39357;BME280;25077;50.302;18.996;2022-10-22T07:21:38;97983.34;;;9.95;59.21
39357;BME280;25077;50.302;18.996;2022-10-22T07:24:41;97996.63;;;10.04;59.25
39357;BME280;25077;50.302;18.996;2022-10-22T07:27:43;98003.63;;;10.05;58.98
39357;BME280;25077;50.302;18.996;2022-10-22T07:31:14;98002.88;;;10.08;59.00
39357;BME280;25077;50.302;18.996;2022-10-22T07:34:17;98005.59;;;10.08;59.89
39357;BME280;25077;50.302;18.996;2022-10-22T07:37:19;98000.69;;;10.13;59.76
39357;BME280;25077;50.302;18.996;2022-10-22T07:40:23;98003.03;;;10.15;58.74
39357;BME280;25077;50.302;18.996;2022-10-22T07:43:25;97998.88;;;10.21;59.58
39357;BME280;25077;50.302;18.996;2022-10-22T07:50:54;97985.56;;;10.35;59.29
39357;BME280;25077;50.302;18.996;2022-10-22T07:53:56;98008.97;;;10.47;59.63
39357;BME280;25077;50.302;18.996;2022-10-22T07:56:59;98022.97;;;10.53;59.17
39357;BME280;25077;50.302;18.996;2022-10-22T08:00:03;98028.47;;;10.60;59.72
39357;BME280;25077;50.302;18.996;2022-10-22T08:03:13;98006.13;;;10.66;57.95
39357;BME280;25077;50.302;18.996;2022-10-22T08:06:15;98002.34;;;10.71;58.83
39357;BME280;25077;50.302;18.996;2022-10-22T08:09:17;98004.09;;;10.86;58.57
39357;BME280;25077;50.302;18.996;2022-10-22T08:12:21;97980.97;;;10.92;58.74
39357;BME280;25077;50.302;18.996;2022-10-22T08:19:50;98001.63;;;11.04;58.55
39357;BME280;25077;50.302;18.996;2022-10-22T08:22:52;98002.41;;;11.04;57.72
39357;BME280;25077;50.302;18.996;2022-10-22T08:25:55;98005.13;;;11.04;57.26
39357;BME280;25077;50.302;18.996;2022-10-22T08:28:58;98004.28;;;11.00;58.73
39357;BME280;25077;50.302;18.996;2022-10-22T08:36:27;98004.09;;;11.13;58.30
39357;BME280;25077;50.302;18.996;2022-10-22T08:39:29;98024.53;;;11.07;57.41
39357;BME280;25077;50.302;18.996;2022-10-22T08:42:54;98017.53;;;11.06;57.94
39357;BME280;25077;50.302;18.996;2022-10-22T08:46:11;98027.31;;;11.14;58.31
39357;BME280;25077;50.302;18.996;2022-10-22T08:49:20;98039.31;;;11.13;57.78
39357;BME280;25077;50.302;18.996;2022-10-22T08:52:23;98043.16;;;11.12;58.32
39357;BME280;25077;50.302;18.996;2022-10-22T08:55:25;98034.63;;;11.10;58.24
39357;BME280;25077;50.302;18.996;2022-10-22T08:58:33;98033.22;;;11.23;58.07
39357;BME280;25077;50.302;18.996;2022-10-22T09:06:09;98030.97;;;11.28;58.08
39357;BME280;25077;50.302;18.996;2022-10-22T09:09:16;98021.66;;;11.26;58.65
39357;BME280;25077;50.302;18.996;2022-10-22T09:12:21;98019.41;;;11.32;58.05
39357;BME280;25077;50.302;18.996;2022-10-22T09:15:25;98027.59;;;11.35;58.52
39357;BME280;25077;50.302;18.996;2022-10-22T09:18:34;98018.00;;;11.45;58.87
39357;BME280;25077;50.302;18.996;2022-10-22T09:21:45;98015.28;;;11.45;58.28
39357;BME280;25077;50.302;18.996;2022-10-22T09:24:54;98027.75;;;11.49;58.60
39357;BME280;25077;50.302;18.996;2022-10-22T09:27:59;98021.56;;;11.49;58.54
39357;BME280;25077;50.302;18.996;2022-10-22T09:31:01;98037.44;;;11.50;58.28
39357;BME280;25077;50.302;18.996;2022-10-22T09:34:03;98048.53;;;11.38;59.36
39357;BME280;25077;50.302;18.996;2022-10-22T09:37:09;98061.22;;;11.30;58.31
39357;BME280;25077;50.302;18.996;2022-10-22T09:40:13;98047.38;;;11.39;58.23
39357;BME280;25077;50.302;18.996;2022-10-22T09:43:15;98035.09;;;11.49;58.89
39357;BME280;25077;50.302;18.996;2022-10-22T09:50:49;98054.03;;;11.45;59.47
39357;BME280;25077;50.302;18.996;2022-10-22T09:53:58;98029.69;;;11.49;59.19
39357;BME280;25077;50.302;18.996;2022-10-22T09:57:04;98037.97;;;11.60;58.64
39357;BME280;25077;50.302;18.996;2022-10-22T10:00:08;98041.84;;;11.59;59.07
39357;BME280;25077;50.302;18.996;2022-10-22T10:03:15;98047.28;;;11.62;58.86
39357;BME280;25077;50.302;18.996;2022-10-22T10:06:19;98048.06;;;11.63;59.02
39357;BME280;25077;50.302;18.996;2022-10-22T10:09:24;98046.19;;;11.67;59.04
39357;BME280;25077;50.302;18.996;2022-10-22T10:12:34;98038.38;;;11.62;58.77
39357;BME280;25077;50.302;18.996;2022-10-22T10:20:20;98039.38;;;11.50;60.00
39357;BME280;25077;50.302;18.996;2022-10-22T10:23:28;98027.75;;;11.49;60.19
39357;BME280;25077;50.302;18.996;2022-10-22T10:26:36;98027.75;;;11.49;59.03
39357;BME280;25077;50.302;18.996;2022-10-22T10:29:45;98028.50;;;11.46;60.80
39357;BME280;25077;50.302;18.996;2022-10-22T10:37:20;98041.31;;;11.49;59.95
39357;BME280;25077;50.302;18.996;2022-10-22T10:40:27;98023.09;;;11.46;60.72
39357;BME280;25077;50.302;18.996;2022-10-22T10:43:42;98016.13;;;11.49;61.10
39357;BME280;25077;50.302;18.996;2022-10-22T10:46:54;98017.69;;;11.50;59.65
39357;BME280;25077;50.302;18.996;2022-10-22T10:50:15;98026.31;;;11.55;61.19
39357;BME280;25077;50.302;18.996;2022-10-22T10:53:26;98033.72;;;11.59;60.16
39357;BME280;25077;50.302;18.996;2022-10-22T10:56:38;98020.56;;;11.61;60.13
39357;BME280;25077;50.302;18.996;2022-10-22T10:59:53;98021.06;;;11.70;59.86
39357;BME280;25077;50.302;18.996;2022-10-22T11:05:21;98023.00;;;11.73;59.67
39357;BME280;25077;50.302;18.996;2022-10-22T11:08:29;98016.84;;;11.76;60.27
39357;BME280;25077;50.302;18.996;2022-10-22T11:11:37;98005.63;;;11.77;59.13
39357;BME280;25077;50.302;18.996;2022-10-22T11:14:48;98007.16;;;11.78;60.57
39357;BME280;25077;50.302;18.996;2022-10-22T11:17:54;97999.03;;;11.78;59.95
39357;BME280;25077;50.302;18.996;2022-10-22T11:21:12;97995.53;;;11.78;60.31
39357;BME280;25077;50.302;18.996;2022-10-22T11:24:19;97997.84;;;11.76;60.85
39357;BME280;25077;50.302;18.996;2022-10-22T11:27:29;97995.16;;;11.76;60.49
39357;BME280;25077;50.302;18.996;2022-10-22T11:30:34;97989.75;;;11.79;60.05
39357;BME280;25077;50.302;18.996;2022-10-22T11:33:43;97985.84;;;11.77;59.95
39357;BME280;25077;50.302;18.996;2022-10-22T11:36:47;97991.22;;;11.73;60.17
39357;BME280;25077;50.302;18.996;2022-10-22T11:39:51;97987.34;;;11.71;61.29
39357;BME280;25077;50.302;18.996;2022-10-22T11:42:56;97986.91;;;11.65;62.91
39357;BME280;25077;50.302;18.996;2022-10-22T11:50:43;97988.16;;;11.75;61.41
39357;BME280;25077;50.302;18.996;2022-10-22T11:53:55;97993.22;;;11.80;61.24
39357;BME280;25077;50.302;18.996;2022-10-22T11:57:15;98000.97;;;11.78;61.72
39357;BME280;25077;50.302;18.996;2022-10-22T12:00:34;97991.28;;;11.77;61.86
39357;BME280;25077;50.302;18.996;2022-10-22T12:03:42;97982.69;;;11.71;61.58
39357;BME280;25077;50.302;18.996;2022-10-22T12:06:58;97984.69;;;11.78;62.62
39357;BME280;25077;50.302;18.996;2022-10-22T12:10:04;97985.13;;;11.83;62.07
39357;BME280;25077;50.302;18.996;2022-10-22T12:13:11;97983.63;;;11.86;62.47
39357;BME280;25077;50.302;18.996;2022-10-22T12:20:41;97987.38;;;11.74;62.39
39357;BME280;25077;50.302;18.996;2022-10-22T12:23:45;97990.84;;;11.71;62.10
39357;BME280;25077;50.302;18.996;2022-10-22T12:26:47;97975.19;;;11.58;64.28
39357;BME280;25077;50.302;18.996;2022-10-22T12:29:55;97973.44;;;11.42;64.11
39357;BME280;25077;50.302;18.996;2022-10-22T12:37:24;97974.94;;;11.36;63.63
39357;BME280;25077;50.302;18.996;2022-10-22T12:40:30;97976.81;;;11.32;64.97
39357;BME280;25077;50.302;18.996;2022-10-22T12:43:32;97973.59;;;11.23;65.36
39357;BME280;25077;50.302;18.996;2022-10-22T12:46:34;97972.03;;;11.18;64.42
39357;BME280;25077;50.302;18.996;2022-10-22T12:49:38;97969.97;;;11.12;65.83
39357;BME280;25077;50.302;18.996;2022-10-22T12:52:42;97968.03;;;11.09;65.13
39357;BME280;25077;50.302;18.996;2022-10-22T12:55:46;97962.59;;;11.09;66.26
39357;BME280;25077;50.302;18.996;2022-10-22T12:58:55;97968.75;;;11.06;65.62
39357;BME280;25077;50.302;18.996;2022-10-22T13:06:27;97961.03;;;11.08;66.60
39357;BME280;25077;50.302;18.996;2022-10-22T13:09:37;97970.31;;;11.07;65.38
39357;BME280;25077;50.302;18.996;2022-10-22T13:12:43;97952.91;;;11.08;64.36
39357;BME280;25077;50.302;18.996;2022-10-22T13:15:45;97956.78;;;11.07;64.70
39357;BME280;25077;50.302;18.996;2022-10-22T13:18:47;97955.50;;;10.97;66.10
39357;BME280;25077;50.302;18.996;2022-10-22T13:21:50;97965.41;;;10.86;64.75
39357;BME280;25077;50.302;18.996;2022-10-22T13:24:53;97962.25;;;10.80;66.21
39357;BME280;25077;50.302;18.996;2022-10-22T13:28:02;97968.44;;;10.81;65.39
39357;BME280;25077;50.302;18.996;2022-10-22T13:31:08;97983.50;;;10.78;66.31
39357;BME280;25077;50.302;18.996;2022-10-22T13:34:16;97982.22;;;10.72;66.14
39357;BME280;25077;50.302;18.996;2022-10-22T13:37:18;97979.88;;;10.67;66.46
39357;BME280;25077;50.302;18.996;2022-10-22T13:40:21;97964.66;;;10.59;67.23
39357;BME280;25077;50.302;18.996;2022-10-22T13:43:25;97973.50;;;10.56;67.55
39357;BME280;25077;50.302;18.996;2022-10-22T13:50:54;97977.34;;;10.28;69.20
39357;BME280;25077;50.302;18.996;2022-10-22T13:53:56;97982.75;;;10.28;69.48
39357;BME280;25077;50.302;18.996;2022-10-22T13:56:58;97976.13;;;10.26;70.31
39357;BME280;25077;50.302;18.996;2022-10-22T14:00:02;97973.50;;;10.29;69.31
39357;BME280;25077;50.302;18.996;2022-10-22T14:07:39;97986.72;;;10.34;70.14
39357;BME280;25077;50.302;18.996;2022-10-22T14:10:41;97992.84;;;10.31;68.98
39357;BME280;25077;50.302;18.996;2022-10-22T14:13:43;97993.16;;;10.26;71.18
39357;BME280;25077;50.302;18.996;2022-10-22T14:16:47;97997.75;;;10.22;70.70
39357;BME280;25077;50.302;18.996;2022-10-22T14:19:49;97996.91;;;10.18;71.35
39357;BME280;25077;50.302;18.996;2022-10-22T14:22:51;98001.47;;;10.14;72.07
39357;BME280;25077;50.302;18.996;2022-10-22T14:25:54;97997.97;;;10.13;71.20
39357;BME280;25077;50.302;18.996;2022-10-22T14:28:56;97981.97;;;10.05;73.96
39357;BME280;25077;50.302;18.996;2022-10-22T14:36:28;97998.63;;;10.07;72.17
39357;BME280;25077;50.302;18.996;2022-10-22T14:39:30;98002.84;;;10.04;72.60
39357;BME280;25077;50.302;18.996;2022-10-22T14:42:33;97990.38;;;10.00;72.29
39357;BME280;25077;50.302;18.996;2022-10-22T14:45:40;97997.34;;;10.01;73.15
39357;BME280;25077;50.302;18.996;2022-10-22T14:53:11;98000.66;;;9.90;75.09
39357;BME280;25077;50.302;18.996;2022-10-22T14:56:16;97998.25;;;9.85;74.12
39357;BME280;25077;50.302;18.996;2022-10-22T14:59:18;97996.28;;;9.82;74.49
39357;BME280;25077;50.302;18.996;2022-10-22T15:02:20;97993.41;;;9.75;74.86
39357;BME280;25077;50.302;18.996;2022-10-22T15:05:22;97996.91;;;9.76;73.32
39357;BME280;25077;50.302;18.996;2022-10-22T15:08:25;97996.06;;;9.71;74.95
39357;BME280;25077;50.302;18.996;2022-10-22T15:11:28;97999.19;;;9.74;73.95
39357;BME280;25077;50.302;18.996;2022-10-22T15:14:30;98001.41;;;9.68;75.98
39357;BME280;25077;50.302;18.996;2022-10-22T15:21:59;98018.22;;;9.58;76.59
39357;BME280;25077;50.302;18.996;2022-10-22T15:25:05;98020.63;;;9.63;75.84
39357;BME280;25077;50.302;18.996;2022-10-22T15:28:08;98013.66;;;9.62;76.43
39357;BME280;25077;50.302;18.996;2022-10-22T15:31:12;98024.88;;;9.64;75.08
39357;BME280;25077;50.302;18.996;2022-10-22T15:38:41;98023.31;;;9.63;75.47
39357;BME280;25077;50.302;18.996;2022-10-22T15:41:44;98033.34;;;9.62;75.22
39357;BME280;25077;50.302;18.996;2022-10-22T15:44:47;98038.72;;;9.59;75.69
39357;BME280;25077;50.302;18.996;2022-10-22T15:47:49;98029.03;;;9.58;77.36
39357;BME280;25077;50.302;18.996;2022-10-22T15:50:51;98036.78;;;9.59;76.08
39357;BME280;25077;50.302;18.996;2022-10-22T15:53:56;98045.59;;;9.56;77.12
39357;BME280;25077;50.302;18.996;2022-10-22T15:57:00;98047.81;;;9.51;75.89
39357;BME280;25077;50.302;18.996;2022-10-22T16:00:05;98061.31;;;9.51;76.53
39357;BME280;25077;50.302;18.996;2022-10-22T16:07:39;98044.88;;;9.40;76.77
39357;BME280;25077;50.302;18.996;2022-10-22T16:10:43;98046.41;;;9.37;76.03
39357;BME280;25077;50.302;18.996;2022-10-22T16:13:51;98041.69;;;9.34;78.67
39357;BME280;25077;50.302;18.996;2022-10-22T16:16:55;98054.66;;;9.25;78.65
39357;BME280;25077;50.302;18.996;2022-10-22T16:24:27;98061.44;;;9.19;78.74
39357;BME280;25077;50.302;18.996;2022-10-22T16:27:29;98051.44;;;9.20;78.88
39357;BME280;25077;50.302;18.996;2022-10-22T16:30:33;98062.31;;;9.23;79.65
39357;BME280;25077;50.302;18.996;2022-10-22T16:33:36;98066.16;;;9.22;78.52
39357;BME280;25077;50.302;18.996;2022-10-22T16:36:38;98066.94;;;9.23;78.57
39357;BME280;25077;50.302;18.996;2022-10-22T16:39:40;98069.72;;;9.26;79.46
39357;BME280;25077;50.302;18.996;2022-10-22T16:42:43;98075.53;;;9.28;77.98
39357;BME280;25077;50.302;18.996;2022-10-22T16:45:50;98080.25;;;9.31;80.33
39357;BME280;25077;50.302;18.996;2022-10-22T16:53:19;98107.09;;;9.24;80.60
39357;BME280;25077;50.302;18.996;2022-10-22T16:56:21;98108.69;;;9.25;80.61
39357;BME280;25077;50.302;18.996;2022-10-22T16:59:23;98108.69;;;9.25;81.15
39357;BME280;25077;50.302;18.996;2022-10-22T17:02:26;98123.25;;;9.21;81.95
39357;BME280;25077;50.302;18.996;2022-10-22T17:09:55;98143.63;;;9.18;82.06
39357;BME280;25077;50.302;18.996;2022-10-22T17:12:57;98135.53;;;9.18;81.60
39357;BME280;25077;50.302;18.996;2022-10-22T17:16:04;98138.69;;;9.20;81.99
39357;BME280;25077;50.302;18.996;2022-10-22T17:19:10;98135.63;;;9.22;81.61
39357;BME280;25077;50.302;18.996;2022-10-22T17:22:13;98138.69;;;9.20;81.78
39357;BME280;25077;50.302;18.996;2022-10-22T17:25:20;98147.56;;;9.21;81.96
39357;BME280;25077;50.302;18.996;2022-10-22T17:28:23;98156.47;;;9.21;80.65
39357;BME280;25077;50.302;18.996;2022-10-22T17:31:27;98146.78;;;9.20;81.29
39357;BME280;25077;50.302;18.996;2022-10-22T17:38:58;98143.09;;;9.28;81.84
39357;BME280;25077;50.302;18.996;2022-10-22T17:42:01;98146.53;;;9.25;82.71
39357;BME280;25077;50.302;18.996;2022-10-22T17:45:04;98155.75;;;9.24;82.03
39357;BME280;25077;50.302;18.996;2022-10-22T17:48:06;98154.31;;;9.30;81.00
39357;BME280;25077;50.302;18.996;2022-10-22T17:51:09;98152.78;;;9.29;81.76
39357;BME280;25077;50.302;18.996;2022-10-22T17:54:13;98153.50;;;9.26;82.51
39357;BME280;25077;50.302;18.996;2022-10-22T17:57:16;98153.53;;;9.30;81.73
39357;BME280;25077;50.302;18.996;2022-10-22T18:00:18;98156.88;;;9.23;82.77
39357;BME280;25077;50.302;18.996;2022-10-22T18:07:48;98158.03;;;9.22;82.36
39357;BME280;25077;50.302;18.996;2022-10-22T18:10:51;98158.09;;;9.26;83.33
39357;BME280;25077;50.302;18.996;2022-10-22T18:13:55;98168.97;;;9.29;82.50
39357;BME280;25077;50.302;18.996;2022-10-22T18:17:00;98161.31;;;9.31;83.00
39357;BME280;25077;50.302;18.996;2022-10-22T18:24:29;98158.91;;;9.26;83.50
39357;BME280;25077;50.302;18.996;2022-10-22T18:27:33;98158.91;;;9.26;83.63
39357;BME280;25077;50.302;18.996;2022-10-22T18:30:37;98154.19;;;9.23;84.56
39357;BME280;25077;50.302;18.996;2022-10-22T18:33:40;98148.09;;;9.26;82.53
39357;BME280;25077;50.302;18.996;2022-10-22T18:36:42;98161.94;;;9.25;82.98
39357;BME280;25077;50.302;18.996;2022-10-22T18:39:44;98162.28;;;9.23;84.70
39357;BME280;25077;50.302;18.996;2022-10-22T18:42:48;98162.00;;;9.28;83.14
39357;BME280;25077;50.302;18.996;2022-10-22T18:45:50;98172.72;;;9.25;84.91
39357;BME280;25077;50.302;18.996;2022-10-22T18:53:20;98185.03;;;9.22;84.55
39357;BME280;25077;50.302;18.996;2022-10-22T18:56:22;98186.34;;;9.28;83.47
39357;BME280;25077;50.302;18.996;2022-10-22T18:59:26;98198.66;;;9.26;85.86
39357;BME280;25077;50.302;18.996;2022-10-22T19:02:28;98196.78;;;9.30;84.61
39357;BME280;25077;50.302;18.996;2022-10-22T19:09:58;98210.91;;;9.39;85.09
39357;BME280;25077;50.302;18.996;2022-10-22T19:13:00;98209.50;;;9.45;84.10
39357;BME280;25077;50.302;18.996;2022-10-22T19:16:05;98215.00;;;9.49;84.76
39357;BME280;25077;50.302;18.996;2022-10-22T19:19:07;98218.53;;;9.53;83.24
39357;BME280;25077;50.302;18.996;2022-10-22T19:22:09;98225.59;;;9.57;83.69
39357;BME280;25077;50.302;18.996;2022-10-22T19:25:11;98229.28;;;9.65;83.93
39357;BME280;25077;50.302;18.996;2022-10-22T19:28:13;98230.84;;;9.66;84.25
39357;BME280;25077;50.302;18.996;2022-10-22T19:31:19;98235.97;;;9.71;84.28
39357;BME280;25077;50.302;18.996;2022-10-22T19:38:48;98238.81;;;9.78;83.57
39357;BME280;25077;50.302;18.996;2022-10-22T19:41:50;98250.16;;;9.84;83.07